Catàleg de serveis del Meteocat
Campanya meteocatpedra

Dades de l'estació automàtica Navata

?
?
Resum diari 22:30 TU
Dades diàries de l'estació meteorològica
Temperatura mitjana 9.3 °C
Temperatura màxima 14.0 °C 13:13 TU
Temperatura mínima 4.5 °C 2:00 TU
Humitat relativa mitjana 70%
Precipitació acumulada 0.0 mm
Ratxa màxima del vent (10 m) 36.4 km/h - 6º 14:28 TU
Irradiació solar global 8.0 MJ/m2

El tram horari està expressat en Temps Universal (TU). Cal sumar una hora en horari d'hivern i dues en horari d'estiu per passar a l'hora oficial.

Navata

Metadades estació meteorol´gica
Municipi Navata
Comarca Alt Empordà
Altitud 152 m
Data alta 26.08.2014
Estat actual Operativa
Dades de període
Període
TU
TM
°C
TX
°C
TN
°C
HRM
%
PPT
mm
VVM (10 m)
km/h
DVM (10 m)
graus
VVX (10 m)
km/h
RS
W/m2
00:00 - 00:30 5.2 5.6 4.9 83 0.0 6.8 268 9.4 0
00:30 - 01:00 5.9 6.1 5.5 80 0.0 7.6 250 10.8 0
01:00 - 01:30 5.3 5.8 4.9 82 0.0 8.6 262 11.9 0
01:30 - 02:00 4.7 4.9 4.5 85 0.0 7.6 260 10.8 0
02:00 - 02:30 4.7 4.9 4.5 85 0.0 8.6 258 12.6 0
02:30 - 03:00 5.0 5.4 4.7 83 0.0 9.0 264 12.6 0
03:00 - 03:30 6.0 6.6 5.4 80 0.0 8.6 295 14.4 0
03:30 - 04:00 7.4 7.6 6.4 80 0.0 9.0 324 15.8 0
04:00 - 04:30 7.0 7.6 6.6 81 0.0 5.8 284 10.8 0
04:30 - 05:00 7.1 7.6 6.7 81 0.0 7.6 286 11.9 0
05:00 - 05:30 7.1 7.6 6.2 81 0.0 8.6 302 14.4 0
05:30 - 06:00 7.0 7.6 6.3 79 0.0 8.3 298 14.0 0
06:00 - 06:30 7.8 8.5 6.9 76 0.0 9.4 316 17.6 0
06:30 - 07:00 7.6 7.9 6.9 77 0.0 10.4 322 16.2 12
07:00 - 07:30 8.4 8.9 7.7 74 0.0 9.0 327 19.1 40
07:30 - 08:00 8.6 9.6 8.1 74 0.0 4.7 289 9.7 125
08:00 - 08:30 10.0 10.5 9.6 71 0.0 8.6 321 14.0 167
08:30 - 09:00 10.8 11.0 10.5 67 0.0 9.7 338 16.2 170
09:00 - 09:30 10.9 11.1 10.8 66 0.0 11.5 355 19.8 141
09:30 - 10:00 10.9 11.1 10.8 65 0.0 13.7 1 21.6 135
10:00 - 10:30 11.1 12.0 10.8 66 0.0 13.0 1 22.0 286
10:30 - 11:00 12.5 13.0 12.0 62 0.0 10.8 353 19.4 524
11:00 - 11:30 12.9 13.2 12.6 60 0.0 2.5 285 9.0 338
11:30 - 12:00 12.9 13.5 12.6 61 0.0 6.5 74 15.8 301
12:00 - 12:30 12.7 13.6 12.4 63 0.0 11.5 21 19.8 278
12:30 - 13:00 13.7 13.9 13.5 60 0.0 15.5 15 23.0 396
13:00 - 13:30 13.8 14.0 13.5 58 0.0 18.4 16 27.0 423
13:30 - 14:00 13.5 13.7 13.3 59 0.0 20.5 18 31.0 382
14:00 - 14:30 13.0 13.5 12.7 60 0.0 23.0 0 36.4 310
14:30 - 15:00 12.5 12.7 12.3 58 0.0 22.0 1 33.8 231
15:00 - 15:30 12.1 12.3 11.8 57 0.0 19.1 0 28.1 152
15:30 - 16:00 11.4 11.8 11.3 57 0.0 16.2 352 31.7 63
16:00 - 16:30 11.0 11.4 10.4 59 0.0 11.2 350 21.2 15
16:30 - 17:00 10.1 10.4 10.0 61 0.0 11.2 356 17.6 0
17:00 - 17:30 10.4 10.5 10.0 58 0.0 11.5 351 18.0 0
17:30 - 18:00 10.2 10.5 9.8 60 0.0 6.1 323 11.9 0
18:00 - 18:30 9.7 9.9 9.4 62 0.0 5.4 321 9.0 0
18:30 - 19:00 9.5 9.8 9.4 65 0.0 3.2 293 6.5 0
19:00 - 19:30 9.7 10.3 9.4 64 0.0 5.0 240 8.6 0
19:30 - 20:00 9.6 10.3 9.0 70 0.0 4.0 230 7.9 0
20:00 - 20:30 8.6 9.0 8.3 76 0.0 5.4 230 7.9 0
20:30 - 21:00 8.4 8.6 8.0 77 0.0 5.4 217 9.0 0
21:00 - 21:30 8.6 8.7 8.3 76 0.0 5.4 223 8.3 0
21:30 - 22:00 7.9 8.5 7.2 79 0.0 4.7 221 8.3 0
22:00 - 22:30 6.9 7.1 6.7 83 0.0 6.8 249 9.7 0
22:30 - 23:00 7.0 7.3 6.8 81 0.0 6.5 237 9.4 0

Les dades en taronja només han passat un control de qualitat automàtic. Resta pendent la seva validació definitiva.